PHJZW BGKK-BGSF
Flight info
| Callsign | PHJZW |
|---|---|
| Flight time | 2h 21m |
| Altitude | 9500 |
| Route | DA UW28 GANGI |
| Aircraft | DA42/L-SBDGRY/S |
Departure
| Time | 2026-05-08 18:02 |
|---|---|
| Airport | Kulusuk Airport (BGKK) |
Arrival
| Time | 2026-05-08 20:23 |
|---|---|
| Airport | Kangerlussuaq International Airport (BGSF) |
| Time | Latitude | Longitude | Altitude | Speed | Heading |
|---|---|---|---|---|---|
| 2026-05-08 17:46 | 65.57395 | -37.13514 | 122 ft | 0 kts | 278° |
| 2026-05-08 17:54 | 65.57380 | -37.13499 | 119 ft | 4 kts | 191° |
| 2026-05-08 17:55 | 65.57357 | -37.13489 | 121 ft | 0 kts | 171° |
| 2026-05-08 17:58 | 65.57356 | -37.13489 | 121 ft | 0 kts | 171° |
| 2026-05-08 17:58 | 65.57324 | -37.13479 | 121 ft | 11 kts | 164° |
| 2026-05-08 17:58 | 65.57311 | -37.13417 | 119 ft | 0 kts | 79° |
| 2026-05-08 17:59 | 65.57304 | -37.13429 | 121 ft | 7 kts | 268° |
| 2026-05-08 18:00 | 65.57306 | -37.13643 | 122 ft | 10 kts | 269° |
| 2026-05-08 18:00 | 65.57299 | -37.13640 | 122 ft | 0 kts | 82° |
| 2026-05-08 18:01 | 65.57301 | -37.13614 | 121 ft | 15 kts | 82° |
| 2026-05-08 18:02 | 65.57333 | -37.12859 | 133 ft | 69 kts | 83° |
| 2026-05-08 18:02 | 65.57406 | -37.12032 | 236 ft | 85 kts | 65° |
| 2026-05-08 18:02 | 65.58137 | -37.12657 | 644 ft | 127 kts | 284° |
| 2026-05-08 18:02 | 65.58044 | -37.14788 | 1066 ft | 130 kts | 263° |
| 2026-05-08 18:03 | 65.57744 | -37.16948 | 1282 ft | 148 kts | 239° |
| 2026-05-08 18:03 | 65.57175 | -37.18986 | 1589 ft | 146 kts | 243° |
| 2026-05-08 18:03 | 65.57079 | -37.21357 | 1932 ft | 142 kts | 288° |
| 2026-05-08 18:03 | 65.57372 | -37.23586 | 2252 ft | 140 kts | 296° |
| 2026-05-08 18:04 | 65.57720 | -37.25807 | 2576 ft | 140 kts | 294° |
| 2026-05-08 18:04 | 65.58051 | -37.27978 | 2888 ft | 138 kts | 294° |
| 2026-05-08 18:04 | 65.58420 | -37.30115 | 3192 ft | 138 kts | 294° |
| 2026-05-08 18:04 | 65.58770 | -37.32250 | 3509 ft | 136 kts | 292° |
| 2026-05-08 18:05 | 65.59104 | -37.34365 | 3814 ft | 134 kts | 291° |
| 2026-05-08 18:05 | 65.59421 | -37.36416 | 4255 ft | 121 kts | 290° |
| 2026-05-08 18:05 | 65.59690 | -37.38179 | 4786 ft | 108 kts | 289° |
| 2026-05-08 18:05 | 65.59949 | -37.39878 | 5179 ft | 107 kts | 288° |
| 2026-05-08 18:06 | 65.60205 | -37.41548 | 5567 ft | 104 kts | 287° |
| 2026-05-08 18:06 | 65.60455 | -37.43189 | 5932 ft | 104 kts | 287° |
| 2026-05-08 18:06 | 65.60707 | -37.44840 | 6292 ft | 105 kts | 286° |
| 2026-05-08 18:06 | 65.60960 | -37.46505 | 6649 ft | 108 kts | 288° |
| 2026-05-08 18:07 | 65.61219 | -37.48210 | 7002 ft | 108 kts | 288° |
| 2026-05-08 18:07 | 65.61477 | -37.49909 | 7378 ft | 107 kts | 288° |
| 2026-05-08 18:07 | 65.61733 | -37.51604 | 7762 ft | 107 kts | 288° |
| 2026-05-08 18:07 | 65.61990 | -37.53301 | 8129 ft | 107 kts | 288° |
| 2026-05-08 18:08 | 65.62247 | -37.54996 | 8479 ft | 107 kts | 288° |
| 2026-05-08 18:08 | 65.62503 | -37.56687 | 8865 ft | 107 kts | 287° |
| 2026-05-08 18:08 | 65.62758 | -37.58375 | 9245 ft | 107 kts | 287° |
| 2026-05-08 18:08 | 65.63012 | -37.60060 | 9611 ft | 107 kts | 287° |
| 2026-05-08 18:09 | 65.63266 | -37.61745 | 9977 ft | 106 kts | 287° |
| 2026-05-08 18:09 | 65.63519 | -37.63431 | 10318 ft | 108 kts | 287° |
| 2026-05-08 18:09 | 65.63805 | -37.65325 | 10334 ft | 128 kts | 288° |
| 2026-05-08 18:09 | 65.64124 | -37.67437 | 10337 ft | 138 kts | 288° |
| 2026-05-08 18:10 | 65.64460 | -37.69675 | 10340 ft | 144 kts | 288° |
| 2026-05-08 18:10 | 65.64808 | -37.72000 | 10340 ft | 149 kts | 288° |
| 2026-05-08 18:10 | 65.65165 | -37.74388 | 10340 ft | 152 kts | 288° |
| 2026-05-08 18:10 | 65.65526 | -37.76804 | 10341 ft | 153 kts | 288° |
| 2026-05-08 18:11 | 65.65888 | -37.79234 | 10334 ft | 153 kts | 288° |
| 2026-05-08 18:11 | 65.66251 | -37.81668 | 10329 ft | 155 kts | 288° |
| 2026-05-08 18:11 | 65.66617 | -37.84130 | 10328 ft | 156 kts | 288° |
| 2026-05-08 18:11 | 65.66985 | -37.86606 | 10326 ft | 157 kts | 288° |
| 2026-05-08 18:12 | 65.67355 | -37.89101 | 10324 ft | 157 kts | 288° |
| 2026-05-08 18:12 | 65.67725 | -37.91598 | 10327 ft | 158 kts | 288° |
| 2026-05-08 18:12 | 65.68097 | -37.94100 | 10324 ft | 157 kts | 288° |
| 2026-05-08 18:12 | 65.68464 | -37.96585 | 10322 ft | 156 kts | 288° |
| 2026-05-08 18:13 | 65.68824 | -37.99025 | 10324 ft | 155 kts | 288° |
| 2026-05-08 18:13 | 65.69187 | -38.01491 | 10322 ft | 155 kts | 288° |
| 2026-05-08 18:13 | 65.69549 | -38.03949 | 10324 ft | 155 kts | 287° |
| 2026-05-08 18:13 | 65.69910 | -38.06405 | 10324 ft | 154 kts | 287° |
| 2026-05-08 18:14 | 65.70271 | -38.08858 | 10326 ft | 154 kts | 287° |
| 2026-05-08 18:14 | 65.70631 | -38.11315 | 10326 ft | 154 kts | 287° |
| 2026-05-08 18:14 | 65.70991 | -38.13773 | 10323 ft | 155 kts | 287° |
| 2026-05-08 18:14 | 65.71350 | -38.16231 | 10319 ft | 154 kts | 287° |
| 2026-05-08 18:15 | 65.71708 | -38.18679 | 10330 ft | 155 kts | 287° |
| 2026-05-08 18:15 | 65.72069 | -38.21159 | 10328 ft | 156 kts | 288° |
| 2026-05-08 18:15 | 65.72432 | -38.23651 | 10329 ft | 157 kts | 287° |
| 2026-05-08 18:15 | 65.72798 | -38.26158 | 10331 ft | 158 kts | 287° |
| 2026-05-08 18:16 | 65.73163 | -38.28680 | 10324 ft | 157 kts | 287° |
| 2026-05-08 18:16 | 65.73525 | -38.31176 | 10323 ft | 156 kts | 287° |
| 2026-05-08 18:16 | 65.73882 | -38.33645 | 10330 ft | 155 kts | 287° |
| 2026-05-08 18:16 | 65.74241 | -38.36121 | 10321 ft | 155 kts | 287° |
| 2026-05-08 18:17 | 65.74597 | -38.38591 | 10326 ft | 154 kts | 287° |
| 2026-05-08 18:17 | 65.74952 | -38.41050 | 10325 ft | 155 kts | 287° |
| 2026-05-08 18:17 | 65.75309 | -38.43528 | 10324 ft | 155 kts | 287° |
| 2026-05-08 18:17 | 65.75664 | -38.45998 | 10316 ft | 154 kts | 287° |
| 2026-05-08 18:18 | 65.76017 | -38.48458 | 10321 ft | 154 kts | 287° |
| 2026-05-08 18:18 | 65.76371 | -38.50925 | 10320 ft | 155 kts | 287° |
| 2026-05-08 18:18 | 65.76725 | -38.53398 | 10321 ft | 155 kts | 287° |
| 2026-05-08 18:18 | 65.77079 | -38.55879 | 10309 ft | 155 kts | 287° |
| 2026-05-08 18:19 | 65.77433 | -38.58354 | 10311 ft | 155 kts | 287° |
| 2026-05-08 18:19 | 65.77786 | -38.60833 | 10310 ft | 155 kts | 287° |
| 2026-05-08 18:19 | 65.78140 | -38.63313 | 10307 ft | 155 kts | 287° |
| 2026-05-08 18:19 | 65.78492 | -38.65787 | 10309 ft | 155 kts | 287° |
| 2026-05-08 18:20 | 65.78838 | -38.68225 | 10309 ft | 154 kts | 287° |
| 2026-05-08 18:20 | 65.79194 | -38.70735 | 10308 ft | 155 kts | 287° |
| 2026-05-08 18:20 | 65.79545 | -38.73219 | 10311 ft | 155 kts | 287° |
| 2026-05-08 18:20 | 65.79893 | -38.75674 | 10310 ft | 155 kts | 287° |
| 2026-05-08 18:21 | 65.80244 | -38.78163 | 10311 ft | 156 kts | 287° |
| 2026-05-08 18:21 | 65.80596 | -38.80659 | 10313 ft | 156 kts | 287° |
| 2026-05-08 18:21 | 65.80946 | -38.83150 | 10311 ft | 155 kts | 287° |
| 2026-05-08 18:21 | 65.81296 | -38.85638 | 10310 ft | 155 kts | 287° |
| 2026-05-08 18:22 | 65.81645 | -38.88125 | 10311 ft | 155 kts | 287° |
| 2026-05-08 18:22 | 65.81995 | -38.90620 | 10313 ft | 156 kts | 287° |
| 2026-05-08 18:22 | 65.82346 | -38.93122 | 10297 ft | 156 kts | 287° |
| 2026-05-08 18:22 | 65.82696 | -38.95627 | 10299 ft | 156 kts | 287° |
| 2026-05-08 18:23 | 65.83045 | -38.98131 | 10301 ft | 156 kts | 287° |
| 2026-05-08 18:23 | 65.83394 | -39.00631 | 10299 ft | 156 kts | 287° |
| 2026-05-08 18:23 | 65.83742 | -39.03130 | 10300 ft | 155 kts | 287° |
| 2026-05-08 18:23 | 65.84089 | -39.05627 | 10299 ft | 155 kts | 287° |
| 2026-05-08 18:24 | 65.84435 | -39.08120 | 10299 ft | 155 kts | 287° |
| 2026-05-08 18:24 | 65.84780 | -39.10613 | 10299 ft | 155 kts | 287° |
| 2026-05-08 18:24 | 65.85125 | -39.13106 | 10300 ft | 155 kts | 287° |
| 2026-05-08 18:24 | 65.85470 | -39.15604 | 10301 ft | 155 kts | 287° |
| 2026-05-08 18:25 | 65.85816 | -39.18112 | 10297 ft | 156 kts | 287° |
| 2026-05-08 18:25 | 65.86045 | -39.19771 | 10298 ft | 156 kts | 287° |
| 2026-05-08 18:25 | 65.86390 | -39.22279 | 10296 ft | 156 kts | 287° |
| 2026-05-08 18:25 | 65.86850 | -39.25626 | 10296 ft | 155 kts | 287° |
| 2026-05-08 18:26 | 65.87078 | -39.27284 | 10296 ft | 155 kts | 287° |
| 2026-05-08 18:26 | 65.87421 | -39.29789 | 10298 ft | 156 kts | 286° |
| 2026-05-08 18:26 | 65.87765 | -39.32304 | 10299 ft | 156 kts | 286° |
| 2026-05-08 18:26 | 65.88110 | -39.34829 | 10300 ft | 157 kts | 286° |
| 2026-05-08 18:27 | 65.88456 | -39.37366 | 10299 ft | 157 kts | 286° |
| 2026-05-08 18:27 | 65.88685 | -39.39045 | 10300 ft | 157 kts | 286° |
| 2026-05-08 18:27 | 65.89146 | -39.42432 | 10299 ft | 157 kts | 286° |
| 2026-05-08 18:27 | 65.89491 | -39.44967 | 10299 ft | 157 kts | 286° |
| 2026-05-08 18:28 | 65.89834 | -39.47500 | 10296 ft | 157 kts | 286° |
| 2026-05-08 18:28 | 65.90177 | -39.50037 | 10296 ft | 157 kts | 286° |
| 2026-05-08 18:28 | 65.90520 | -39.52568 | 10298 ft | 157 kts | 286° |
| 2026-05-08 18:28 | 65.90862 | -39.55101 | 10298 ft | 157 kts | 286° |
| 2026-05-08 18:29 | 65.91204 | -39.57639 | 10300 ft | 157 kts | 286° |
| 2026-05-08 18:29 | 65.91545 | -39.60170 | 10297 ft | 157 kts | 286° |
| 2026-05-08 18:29 | 65.91886 | -39.62707 | 10297 ft | 157 kts | 286° |
| 2026-05-08 18:29 | 65.92226 | -39.65242 | 10299 ft | 157 kts | 286° |
| 2026-05-08 18:30 | 65.92566 | -39.67777 | 10272 ft | 157 kts | 286° |
| 2026-05-08 18:30 | 65.92906 | -39.70315 | 10271 ft | 157 kts | 286° |
| 2026-05-08 18:30 | 65.93245 | -39.72852 | 10269 ft | 157 kts | 286° |
| 2026-05-08 18:30 | 65.93584 | -39.75389 | 10273 ft | 156 kts | 286° |
| 2026-05-08 18:31 | 65.93921 | -39.77919 | 10269 ft | 156 kts | 286° |
| 2026-05-08 18:31 | 65.94258 | -39.80452 | 10272 ft | 156 kts | 286° |
| 2026-05-08 18:31 | 65.94594 | -39.82983 | 10269 ft | 156 kts | 286° |
| 2026-05-08 18:31 | 65.94930 | -39.85518 | 10269 ft | 156 kts | 286° |
| 2026-05-08 18:32 | 65.95266 | -39.88054 | 10272 ft | 157 kts | 286° |
| 2026-05-08 18:32 | 65.95602 | -39.90595 | 10270 ft | 157 kts | 286° |
| 2026-05-08 18:32 | 65.95933 | -39.93103 | 10270 ft | 157 kts | 286° |
| 2026-05-08 18:32 | 65.96268 | -39.95645 | 10269 ft | 157 kts | 286° |
| 2026-05-08 18:33 | 65.96603 | -39.98188 | 10272 ft | 157 kts | 285° |
| 2026-05-08 18:33 | 65.96937 | -40.00730 | 10271 ft | 157 kts | 285° |
| 2026-05-08 18:33 | 65.97270 | -40.03274 | 10259 ft | 157 kts | 285° |
| 2026-05-08 18:33 | 65.97604 | -40.05828 | 10217 ft | 157 kts | 285° |
| 2026-05-08 18:34 | 65.97938 | -40.08385 | 10221 ft | 157 kts | 285° |
| 2026-05-08 18:34 | 65.98273 | -40.10947 | 10222 ft | 158 kts | 285° |
| 2026-05-08 18:34 | 65.98607 | -40.13510 | 10222 ft | 158 kts | 285° |
| 2026-05-08 18:34 | 65.98940 | -40.16071 | 10221 ft | 158 kts | 285° |
| 2026-05-08 18:35 | 65.99273 | -40.18639 | 10222 ft | 158 kts | 285° |
| 2026-05-08 18:35 | 65.99606 | -40.21204 | 10220 ft | 158 kts | 285° |
| 2026-05-08 18:35 | 65.99938 | -40.23771 | 10220 ft | 158 kts | 285° |
| 2026-05-08 18:35 | 66.00270 | -40.26339 | 10220 ft | 158 kts | 285° |
| 2026-05-08 18:36 | 66.00602 | -40.28908 | 10218 ft | 158 kts | 285° |
| 2026-05-08 18:36 | 66.00932 | -40.31472 | 10218 ft | 158 kts | 285° |
| 2026-05-08 18:36 | 66.01264 | -40.34046 | 10212 ft | 158 kts | 285° |
| 2026-05-08 18:36 | 66.01593 | -40.36612 | 10212 ft | 158 kts | 285° |
| 2026-05-08 18:37 | 66.01922 | -40.39180 | 10213 ft | 157 kts | 285° |
| 2026-05-08 18:37 | 66.02251 | -40.41747 | 10170 ft | 157 kts | 285° |
| 2026-05-08 18:37 | 66.02579 | -40.44313 | 10171 ft | 157 kts | 285° |
| 2026-05-08 18:37 | 66.02907 | -40.46882 | 10169 ft | 157 kts | 285° |
| 2026-05-08 18:38 | 66.03234 | -40.49450 | 10170 ft | 158 kts | 285° |
| 2026-05-08 18:38 | 66.03558 | -40.51989 | 10171 ft | 158 kts | 285° |
| 2026-05-08 18:38 | 66.03885 | -40.54565 | 10168 ft | 158 kts | 285° |
| 2026-05-08 18:38 | 66.04212 | -40.57140 | 10168 ft | 158 kts | 285° |
| 2026-05-08 18:39 | 66.04538 | -40.59715 | 10171 ft | 158 kts | 285° |
| 2026-05-08 18:39 | 66.04864 | -40.62294 | 10168 ft | 158 kts | 285° |
| 2026-05-08 18:39 | 66.05190 | -40.64871 | 10170 ft | 158 kts | 285° |
| 2026-05-08 18:39 | 66.05514 | -40.67443 | 10170 ft | 157 kts | 285° |
| 2026-05-08 18:40 | 66.05838 | -40.70018 | 10169 ft | 157 kts | 285° |
| 2026-05-08 18:40 | 66.06161 | -40.72586 | 10168 ft | 157 kts | 285° |
| 2026-05-08 18:40 | 66.06483 | -40.75156 | 10170 ft | 157 kts | 285° |
| 2026-05-08 18:40 | 66.06806 | -40.77730 | 10168 ft | 157 kts | 285° |
| 2026-05-08 18:41 | 66.07128 | -40.80309 | 10170 ft | 158 kts | 285° |
| 2026-05-08 18:41 | 66.07451 | -40.82889 | 10170 ft | 158 kts | 285° |
| 2026-05-08 18:41 | 66.07772 | -40.85470 | 10168 ft | 158 kts | 285° |
| 2026-05-08 18:41 | 66.08094 | -40.88051 | 10171 ft | 158 kts | 285° |
| 2026-05-08 18:42 | 66.08415 | -40.90633 | 10171 ft | 158 kts | 285° |
| 2026-05-08 18:42 | 66.08735 | -40.93216 | 10169 ft | 158 kts | 285° |
| 2026-05-08 18:42 | 66.09055 | -40.95800 | 10168 ft | 158 kts | 285° |
| 2026-05-08 18:42 | 66.09375 | -40.98382 | 10163 ft | 158 kts | 285° |
| 2026-05-08 18:43 | 66.09694 | -41.00970 | 10162 ft | 158 kts | 285° |
| 2026-05-08 18:43 | 66.10014 | -41.03567 | 10162 ft | 158 kts | 285° |
| 2026-05-08 18:43 | 66.10334 | -41.06159 | 10161 ft | 158 kts | 284° |
| 2026-05-08 18:43 | 66.10652 | -41.08750 | 10160 ft | 158 kts | 284° |
| 2026-05-08 18:44 | 66.10970 | -41.11345 | 10163 ft | 158 kts | 284° |
| 2026-05-08 18:44 | 66.11288 | -41.13937 | 10169 ft | 158 kts | 284° |
| 2026-05-08 18:44 | 66.11604 | -41.16526 | 10157 ft | 158 kts | 285° |
| 2026-05-08 18:44 | 66.11921 | -41.19114 | 10149 ft | 158 kts | 285° |
| 2026-05-08 18:45 | 66.12233 | -41.21672 | 10148 ft | 158 kts | 284° |
| 2026-05-08 18:45 | 66.12548 | -41.24264 | 10147 ft | 158 kts | 285° |
| 2026-05-08 18:45 | 66.12863 | -41.26856 | 10148 ft | 157 kts | 284° |
| 2026-05-08 18:45 | 66.13177 | -41.29443 | 10147 ft | 157 kts | 284° |
| 2026-05-08 18:46 | 66.13490 | -41.32031 | 10154 ft | 157 kts | 284° |
| 2026-05-08 18:46 | 66.13803 | -41.34618 | 10153 ft | 157 kts | 284° |
| 2026-05-08 18:46 | 66.14116 | -41.37208 | 10153 ft | 157 kts | 284° |
| 2026-05-08 18:46 | 66.14428 | -41.39796 | 10153 ft | 157 kts | 284° |
| 2026-05-08 18:47 | 66.14739 | -41.42385 | 10148 ft | 157 kts | 284° |
| 2026-05-08 18:47 | 66.15050 | -41.44974 | 10150 ft | 157 kts | 284° |
| 2026-05-08 18:47 | 66.15362 | -41.47569 | 10153 ft | 157 kts | 284° |
| 2026-05-08 18:47 | 66.15673 | -41.50164 | 10149 ft | 158 kts | 284° |
| 2026-05-08 18:48 | 66.15983 | -41.52760 | 10147 ft | 158 kts | 284° |
| 2026-05-08 18:48 | 66.16293 | -41.55357 | 10136 ft | 158 kts | 284° |
| 2026-05-08 18:48 | 66.16602 | -41.57956 | 10137 ft | 158 kts | 284° |
| 2026-05-08 18:48 | 66.16911 | -41.60552 | 10135 ft | 157 kts | 284° |
| 2026-05-08 18:49 | 66.17220 | -41.63150 | 10130 ft | 157 kts | 283° |
| 2026-05-08 18:49 | 66.17528 | -41.65749 | 10130 ft | 157 kts | 283° |
| 2026-05-08 18:49 | 66.17835 | -41.68344 | 10128 ft | 157 kts | 283° |
| 2026-05-08 18:49 | 66.18142 | -41.70944 | 10131 ft | 157 kts | 283° |
| 2026-05-08 18:50 | 66.18449 | -41.73542 | 10130 ft | 157 kts | 283° |
| 2026-05-08 18:50 | 66.18755 | -41.76144 | 10130 ft | 157 kts | 283° |
| 2026-05-08 18:50 | 66.19061 | -41.78746 | 10129 ft | 158 kts | 283° |
| 2026-05-08 18:50 | 66.19367 | -41.81354 | 10130 ft | 158 kts | 283° |
| 2026-05-08 18:51 | 66.19673 | -41.83965 | 10127 ft | 158 kts | 283° |
| 2026-05-08 18:51 | 66.19979 | -41.86576 | 10126 ft | 158 kts | 283° |
| 2026-05-08 18:51 | 66.20283 | -41.89180 | 10126 ft | 157 kts | 283° |
| 2026-05-08 18:51 | 66.20587 | -41.91782 | 10126 ft | 157 kts | 283° |
| 2026-05-08 18:52 | 66.20890 | -41.94385 | 10118 ft | 157 kts | 283° |
| 2026-05-08 18:52 | 66.21193 | -41.96993 | 10121 ft | 158 kts | 283° |
| 2026-05-08 18:52 | 66.21496 | -41.99608 | 10121 ft | 158 kts | 283° |
| 2026-05-08 18:52 | 66.21799 | -42.02226 | 10120 ft | 158 kts | 283° |
| 2026-05-08 18:53 | 66.22102 | -42.04848 | 10118 ft | 158 kts | 283° |
| 2026-05-08 18:53 | 66.22404 | -42.07461 | 10121 ft | 158 kts | 283° |
| 2026-05-08 18:53 | 66.22706 | -42.10078 | 10120 ft | 158 kts | 283° |
| 2026-05-08 18:53 | 66.23002 | -42.12657 | 10131 ft | 158 kts | 283° |
| 2026-05-08 18:54 | 66.23307 | -42.15306 | 10127 ft | 158 kts | 282° |
| 2026-05-08 18:54 | 66.23607 | -42.17926 | 10128 ft | 158 kts | 283° |
| 2026-05-08 18:54 | 66.23903 | -42.20519 | 10129 ft | 158 kts | 283° |
| 2026-05-08 18:54 | 66.24204 | -42.23147 | 10130 ft | 158 kts | 282° |
| 2026-05-08 18:55 | 66.24803 | -42.28402 | 10127 ft | 158 kts | 282° |
| 2026-05-08 18:55 | 66.25101 | -42.31031 | 10127 ft | 158 kts | 282° |
| 2026-05-08 18:55 | 66.25400 | -42.33659 | 10115 ft | 158 kts | 282° |
| 2026-05-08 18:56 | 66.25697 | -42.36284 | 10111 ft | 158 kts | 282° |
| 2026-05-08 18:56 | 66.25994 | -42.38911 | 10111 ft | 158 kts | 282° |
| 2026-05-08 18:56 | 66.26290 | -42.41534 | 10113 ft | 158 kts | 282° |
| 2026-05-08 18:56 | 66.26586 | -42.44158 | 10111 ft | 158 kts | 282° |
| 2026-05-08 18:57 | 66.26881 | -42.46779 | 10113 ft | 158 kts | 282° |
| 2026-05-08 18:57 | 66.27076 | -42.48520 | 10111 ft | 158 kts | 282° |
| 2026-05-08 18:57 | 66.27470 | -42.52033 | 10116 ft | 158 kts | 282° |
| 2026-05-08 18:57 | 66.27764 | -42.54658 | 10113 ft | 158 kts | 282° |
| 2026-05-08 18:58 | 66.28057 | -42.57284 | 10111 ft | 158 kts | 282° |
| 2026-05-08 18:58 | 66.28351 | -42.59916 | 10113 ft | 158 kts | 282° |
| 2026-05-08 18:58 | 66.28644 | -42.62546 | 10113 ft | 158 kts | 282° |
| 2026-05-08 18:58 | 66.28937 | -42.65182 | 10111 ft | 158 kts | 282° |
| 2026-05-08 18:59 | 66.29229 | -42.67818 | 10114 ft | 158 kts | 282° |
| 2026-05-08 18:59 | 66.29520 | -42.70450 | 10098 ft | 158 kts | 282° |
| 2026-05-08 18:59 | 66.29811 | -42.73081 | 10097 ft | 158 kts | 282° |
| 2026-05-08 18:59 | 66.30101 | -42.75710 | 10098 ft | 158 kts | 282° |
| 2026-05-08 19:00 | 66.30293 | -42.77453 | 10100 ft | 158 kts | 282° |
| 2026-05-08 19:00 | 66.30681 | -42.80979 | 10100 ft | 158 kts | 282° |
| 2026-05-08 19:00 | 66.30971 | -42.83618 | 10100 ft | 158 kts | 282° |
| 2026-05-08 19:00 | 66.31260 | -42.86256 | 10099 ft | 158 kts | 282° |
| 2026-05-08 19:01 | 66.31548 | -42.88892 | 10100 ft | 158 kts | 282° |
| 2026-05-08 19:01 | 66.31836 | -42.91524 | 10098 ft | 158 kts | 282° |
| 2026-05-08 19:01 | 66.32123 | -42.94156 | 10090 ft | 158 kts | 282° |
| 2026-05-08 19:01 | 66.32409 | -42.96791 | 10094 ft | 158 kts | 282° |
| 2026-05-08 19:02 | 66.32695 | -42.99427 | 10090 ft | 158 kts | 282° |
| 2026-05-08 19:02 | 66.32982 | -43.02067 | 10089 ft | 158 kts | 282° |
| 2026-05-08 19:02 | 66.33268 | -43.04711 | 10090 ft | 158 kts | 282° |
| 2026-05-08 19:02 | 66.33553 | -43.07350 | 10090 ft | 158 kts | 282° |
| 2026-05-08 19:03 | 66.33834 | -43.09958 | 10084 ft | 158 kts | 281° |
| 2026-05-08 19:03 | 66.34119 | -43.12606 | 10078 ft | 158 kts | 281° |
| 2026-05-08 19:03 | 66.34402 | -43.15238 | 10079 ft | 157 kts | 281° |
| 2026-05-08 19:03 | 66.34684 | -43.17870 | 10079 ft | 157 kts | 281° |
| 2026-05-08 19:04 | 66.34965 | -43.20497 | 10079 ft | 157 kts | 281° |
| 2026-05-08 19:04 | 66.35246 | -43.23125 | 10078 ft | 157 kts | 281° |
| 2026-05-08 19:04 | 66.35527 | -43.25753 | 10076 ft | 157 kts | 281° |
| 2026-05-08 19:04 | 66.35806 | -43.28378 | 10076 ft | 157 kts | 280° |
| 2026-05-08 19:05 | 66.36084 | -43.30993 | 10072 ft | 156 kts | 280° |
| 2026-05-08 19:05 | 66.36361 | -43.33600 | 10073 ft | 155 kts | 280° |
| 2026-05-08 19:05 | 66.36636 | -43.36193 | 10073 ft | 155 kts | 280° |
| 2026-05-08 19:05 | 66.36910 | -43.38787 | 10073 ft | 155 kts | 280° |
| 2026-05-08 19:06 | 66.37183 | -43.41380 | 10076 ft | 155 kts | 280° |
| 2026-05-08 19:06 | 66.37456 | -43.43975 | 10076 ft | 155 kts | 280° |
| 2026-05-08 19:06 | 66.37730 | -43.46580 | 10076 ft | 156 kts | 280° |
| 2026-05-08 19:06 | 66.38004 | -43.49189 | 10063 ft | 155 kts | 280° |
| 2026-05-08 19:07 | 66.38277 | -43.51792 | 10063 ft | 155 kts | 280° |
| 2026-05-08 19:07 | 66.38550 | -43.54397 | 10063 ft | 155 kts | 280° |
| 2026-05-08 19:07 | 66.38822 | -43.57009 | 10063 ft | 156 kts | 280° |
| 2026-05-08 19:07 | 66.39094 | -43.59621 | 10049 ft | 156 kts | 280° |
| 2026-05-08 19:08 | 66.39366 | -43.62239 | 10048 ft | 156 kts | 280° |
| 2026-05-08 19:08 | 66.39638 | -43.64855 | 10049 ft | 156 kts | 280° |
| 2026-05-08 19:08 | 66.39909 | -43.67473 | 10049 ft | 156 kts | 280° |
| 2026-05-08 19:08 | 66.40180 | -43.70096 | 10048 ft | 156 kts | 280° |
| 2026-05-08 19:09 | 66.40450 | -43.72710 | 10048 ft | 156 kts | 280° |
| 2026-05-08 19:09 | 66.40720 | -43.75328 | 10049 ft | 156 kts | 280° |
| 2026-05-08 19:09 | 66.40990 | -43.77947 | 10049 ft | 156 kts | 280° |
| 2026-05-08 19:09 | 66.41259 | -43.80571 | 10049 ft | 156 kts | 280° |
| 2026-05-08 19:10 | 66.41528 | -43.83204 | 10048 ft | 157 kts | 280° |
| 2026-05-08 19:10 | 66.41798 | -43.85837 | 10048 ft | 156 kts | 280° |
| 2026-05-08 19:10 | 66.42067 | -43.88465 | 10039 ft | 156 kts | 280° |
| 2026-05-08 19:10 | 66.42334 | -43.91086 | 10038 ft | 155 kts | 280° |
| 2026-05-08 19:11 | 66.42596 | -43.93696 | 10041 ft | 155 kts | 279° |
| 2026-05-08 19:11 | 66.42854 | -43.96302 | 10041 ft | 155 kts | 279° |
| 2026-05-08 19:11 | 66.43030 | -43.98035 | 10041 ft | 155 kts | 280° |
| 2026-05-08 19:11 | 66.43298 | -44.00647 | 10042 ft | 155 kts | 280° |
| 2026-05-08 19:12 | 66.43566 | -44.03266 | 10041 ft | 156 kts | 279° |
| 2026-05-08 19:12 | 66.43832 | -44.05888 | 10041 ft | 156 kts | 279° |
| 2026-05-08 19:12 | 66.44183 | -44.09376 | 10048 ft | 156 kts | 279° |
| 2026-05-08 19:12 | 66.44448 | -44.12010 | 10048 ft | 156 kts | 279° |
| 2026-05-08 19:13 | 66.44712 | -44.14647 | 10051 ft | 157 kts | 279° |
| 2026-05-08 19:13 | 66.44891 | -44.16437 | 10050 ft | 157 kts | 279° |
| 2026-05-08 19:13 | 66.45155 | -44.19082 | 10050 ft | 157 kts | 279° |
| 2026-05-08 19:13 | 66.45420 | -44.21732 | 10050 ft | 157 kts | 279° |
| 2026-05-08 19:14 | 66.45684 | -44.24385 | 10044 ft | 157 kts | 279° |
| 2026-05-08 19:14 | 66.45947 | -44.27035 | 10027 ft | 157 kts | 279° |
| 2026-05-08 19:14 | 66.46209 | -44.29678 | 10028 ft | 156 kts | 279° |
| 2026-05-08 19:14 | 66.46467 | -44.32286 | 10028 ft | 156 kts | 279° |
| 2026-05-08 19:15 | 66.46727 | -44.34919 | 10028 ft | 156 kts | 279° |
| 2026-05-08 19:15 | 66.46987 | -44.37555 | 10028 ft | 156 kts | 279° |
| 2026-05-08 19:15 | 66.47247 | -44.40194 | 10029 ft | 156 kts | 279° |
| 2026-05-08 19:15 | 66.47506 | -44.42839 | 10028 ft | 157 kts | 279° |
| 2026-05-08 19:16 | 66.47766 | -44.45488 | 10028 ft | 157 kts | 279° |
| 2026-05-08 19:16 | 66.48026 | -44.48139 | 10029 ft | 157 kts | 279° |
| 2026-05-08 19:16 | 66.48285 | -44.50796 | 10029 ft | 157 kts | 279° |
| 2026-05-08 19:16 | 66.48544 | -44.53451 | 10028 ft | 157 kts | 279° |
| 2026-05-08 19:17 | 66.48801 | -44.56098 | 10028 ft | 156 kts | 279° |
| 2026-05-08 19:17 | 66.49057 | -44.58738 | 10028 ft | 156 kts | 279° |
| 2026-05-08 19:17 | 66.49313 | -44.61388 | 10029 ft | 157 kts | 279° |
| 2026-05-08 19:17 | 66.49570 | -44.64039 | 10028 ft | 157 kts | 279° |
| 2026-05-08 19:18 | 66.49826 | -44.66689 | 10022 ft | 156 kts | 279° |
| 2026-05-08 19:18 | 66.50081 | -44.69339 | 10022 ft | 157 kts | 279° |
| 2026-05-08 19:18 | 66.50336 | -44.71997 | 10022 ft | 157 kts | 279° |
| 2026-05-08 19:18 | 66.50591 | -44.74656 | 10021 ft | 157 kts | 279° |
| 2026-05-08 19:19 | 66.50845 | -44.77310 | 10017 ft | 156 kts | 279° |
| 2026-05-08 19:19 | 66.51098 | -44.79959 | 10016 ft | 156 kts | 279° |
| 2026-05-08 19:19 | 66.51350 | -44.82596 | 10016 ft | 156 kts | 278° |
| 2026-05-08 19:19 | 66.51601 | -44.85233 | 10016 ft | 155 kts | 278° |
| 2026-05-08 19:20 | 66.51851 | -44.87869 | 10016 ft | 156 kts | 278° |
| 2026-05-08 19:20 | 66.52017 | -44.89619 | 10017 ft | 156 kts | 278° |
| 2026-05-08 19:20 | 66.52353 | -44.93167 | 10015 ft | 157 kts | 277° |
| 2026-05-08 19:20 | 66.52605 | -44.95847 | 10015 ft | 158 kts | 277° |
| 2026-05-08 19:21 | 66.52859 | -44.98543 | 10009 ft | 159 kts | 277° |
| 2026-05-08 19:21 | 66.53114 | -45.01250 | 10008 ft | 159 kts | 277° |
| 2026-05-08 19:21 | 66.53368 | -45.03954 | 10008 ft | 159 kts | 277° |
| 2026-05-08 19:21 | 66.53622 | -45.06664 | 10003 ft | 160 kts | 277° |
| 2026-05-08 19:22 | 66.53876 | -45.09373 | 10005 ft | 159 kts | 277° |
| 2026-05-08 19:22 | 66.54128 | -45.12078 | 10006 ft | 159 kts | 277° |
| 2026-05-08 19:22 | 66.54377 | -45.14779 | 10006 ft | 159 kts | 276° |
| 2026-05-08 19:22 | 66.54625 | -45.17493 | 10006 ft | 160 kts | 276° |
| 2026-05-08 19:23 | 66.54878 | -45.20210 | 10006 ft | 160 kts | 276° |
| 2026-05-08 19:23 | 66.55132 | -45.22929 | 10005 ft | 160 kts | 277° |
| 2026-05-08 19:23 | 66.55384 | -45.25640 | 10006 ft | 159 kts | 276° |
| 2026-05-08 19:23 | 66.55631 | -45.28312 | 10005 ft | 159 kts | 276° |
| 2026-05-08 19:24 | 66.55882 | -45.31051 | 10005 ft | 159 kts | 276° |
| 2026-05-08 19:24 | 66.56131 | -45.33757 | 10006 ft | 159 kts | 276° |
| 2026-05-08 19:24 | 66.56379 | -45.36465 | 10007 ft | 159 kts | 276° |
| 2026-05-08 19:24 | 66.56626 | -45.39176 | 10007 ft | 159 kts | 276° |
| 2026-05-08 19:25 | 66.56874 | -45.41889 | 10007 ft | 159 kts | 276° |
| 2026-05-08 19:25 | 66.57117 | -45.44564 | 10006 ft | 159 kts | 276° |
| 2026-05-08 19:25 | 66.57363 | -45.47279 | 10000 ft | 159 kts | 276° |
| 2026-05-08 19:25 | 66.57608 | -45.49963 | 9973 ft | 156 kts | 276° |
| 2026-05-08 19:26 | 66.57851 | -45.52652 | 9757 ft | 159 kts | 276° |
| 2026-05-08 19:26 | 66.58094 | -45.55354 | 9583 ft | 158 kts | 277° |
| 2026-05-08 19:26 | 66.58338 | -45.58059 | 9379 ft | 159 kts | 276° |
| 2026-05-08 19:26 | 66.58581 | -45.60765 | 9162 ft | 159 kts | 276° |
| 2026-05-08 19:27 | 66.58823 | -45.63472 | 8980 ft | 158 kts | 276° |
| 2026-05-08 19:27 | 66.59058 | -45.66080 | 8982 ft | 149 kts | 276° |
| 2026-05-08 19:27 | 66.59281 | -45.68565 | 8978 ft | 143 kts | 276° |
| 2026-05-08 19:27 | 66.59494 | -45.70974 | 8979 ft | 140 kts | 275° |
| 2026-05-08 19:28 | 66.59704 | -45.73341 | 8975 ft | 138 kts | 276° |
| 2026-05-08 19:28 | 66.59917 | -45.75774 | 8704 ft | 152 kts | 276° |
| 2026-05-08 19:28 | 66.60155 | -45.78479 | 8481 ft | 159 kts | 277° |
| 2026-05-08 19:28 | 66.60398 | -45.81207 | 8480 ft | 160 kts | 277° |
| 2026-05-08 19:29 | 66.60640 | -45.83943 | 8480 ft | 161 kts | 277° |
| 2026-05-08 19:29 | 66.60883 | -45.86687 | 8476 ft | 161 kts | 277° |
| 2026-05-08 19:29 | 66.61125 | -45.89439 | 8476 ft | 161 kts | 277° |
| 2026-05-08 19:29 | 66.61367 | -45.92195 | 8476 ft | 161 kts | 277° |
| 2026-05-08 19:30 | 66.61608 | -45.94951 | 8475 ft | 161 kts | 277° |
| 2026-05-08 19:30 | 66.61849 | -45.97713 | 8476 ft | 162 kts | 277° |
| 2026-05-08 19:30 | 66.62090 | -46.00481 | 8476 ft | 162 kts | 277° |
| 2026-05-08 19:30 | 66.62331 | -46.03264 | 8476 ft | 163 kts | 277° |
| 2026-05-08 19:31 | 66.62573 | -46.06066 | 8482 ft | 166 kts | 276° |
| 2026-05-08 19:31 | 66.62818 | -46.08897 | 8477 ft | 165 kts | 276° |
| 2026-05-08 19:31 | 66.63062 | -46.11714 | 8479 ft | 165 kts | 276° |
| 2026-05-08 19:31 | 66.63305 | -46.14536 | 8479 ft | 165 kts | 276° |
| 2026-05-08 19:32 | 66.63547 | -46.17356 | 8481 ft | 165 kts | 276° |
| 2026-05-08 19:32 | 66.63789 | -46.20184 | 8481 ft | 166 kts | 276° |
| 2026-05-08 19:32 | 66.64031 | -46.23022 | 8479 ft | 165 kts | 276° |
| 2026-05-08 19:32 | 66.64273 | -46.25847 | 8464 ft | 165 kts | 276° |
| 2026-05-08 19:33 | 66.64514 | -46.28672 | 8466 ft | 165 kts | 276° |
| 2026-05-08 19:33 | 66.64753 | -46.31494 | 8465 ft | 164 kts | 276° |
| 2026-05-08 19:33 | 66.64992 | -46.34312 | 8465 ft | 164 kts | 276° |
| 2026-05-08 19:33 | 66.65229 | -46.37125 | 8464 ft | 164 kts | 276° |
| 2026-05-08 19:34 | 66.65466 | -46.39926 | 8463 ft | 163 kts | 276° |
| 2026-05-08 19:34 | 66.65701 | -46.42718 | 8464 ft | 163 kts | 276° |
| 2026-05-08 19:34 | 66.65932 | -46.45473 | 8464 ft | 163 kts | 276° |
| 2026-05-08 19:34 | 66.66165 | -46.48267 | 8464 ft | 163 kts | 276° |
| 2026-05-08 19:35 | 66.66400 | -46.51067 | 8463 ft | 163 kts | 276° |
| 2026-05-08 19:35 | 66.66633 | -46.53865 | 8463 ft | 163 kts | 276° |
| 2026-05-08 19:35 | 66.66865 | -46.56662 | 8463 ft | 163 kts | 275° |
| 2026-05-08 19:35 | 66.67106 | -46.59456 | 8464 ft | 163 kts | 277° |
| 2026-05-08 19:36 | 66.67346 | -46.62264 | 8466 ft | 165 kts | 276° |
| 2026-05-08 19:36 | 66.67575 | -46.65098 | 8459 ft | 165 kts | 275° |
| 2026-05-08 19:36 | 66.67803 | -46.67933 | 8458 ft | 165 kts | 275° |
| 2026-05-08 19:36 | 66.68033 | -46.70773 | 8459 ft | 165 kts | 275° |
| 2026-05-08 19:37 | 66.68265 | -46.73614 | 8457 ft | 165 kts | 275° |
| 2026-05-08 19:37 | 66.68497 | -46.76459 | 8457 ft | 166 kts | 275° |
| 2026-05-08 19:37 | 66.68730 | -46.79306 | 8457 ft | 166 kts | 276° |
| 2026-05-08 19:37 | 66.68962 | -46.82159 | 8457 ft | 166 kts | 276° |
| 2026-05-08 19:38 | 66.69194 | -46.85018 | 8459 ft | 166 kts | 276° |
| 2026-05-08 19:38 | 66.69425 | -46.87876 | 8458 ft | 166 kts | 276° |
| 2026-05-08 19:38 | 66.69656 | -46.90725 | 8457 ft | 166 kts | 275° |
| 2026-05-08 19:38 | 66.69886 | -46.93574 | 8458 ft | 165 kts | 275° |
| 2026-05-08 19:39 | 66.70114 | -46.96416 | 8450 ft | 165 kts | 275° |
| 2026-05-08 19:39 | 66.70343 | -46.99266 | 8451 ft | 166 kts | 275° |
| 2026-05-08 19:39 | 66.70572 | -47.02130 | 8451 ft | 166 kts | 275° |
| 2026-05-08 19:39 | 66.70801 | -47.04996 | 8464 ft | 167 kts | 276° |
| 2026-05-08 19:40 | 66.71031 | -47.07877 | 8450 ft | 167 kts | 274° |
| 2026-05-08 19:40 | 66.71259 | -47.10747 | 8451 ft | 167 kts | 274° |
| 2026-05-08 19:40 | 66.71487 | -47.13617 | 8452 ft | 167 kts | 274° |
| 2026-05-08 19:40 | 66.71713 | -47.16488 | 8452 ft | 167 kts | 274° |
| 2026-05-08 19:41 | 66.71937 | -47.19325 | 8449 ft | 167 kts | 274° |
| 2026-05-08 19:41 | 66.72163 | -47.22198 | 8449 ft | 167 kts | 274° |
| 2026-05-08 19:41 | 66.72392 | -47.25111 | 8449 ft | 166 kts | 274° |
| 2026-05-08 19:41 | 66.72613 | -47.27940 | 8448 ft | 166 kts | 273° |
| 2026-05-08 19:42 | 66.72840 | -47.30838 | 8449 ft | 166 kts | 274° |
| 2026-05-08 19:42 | 66.73060 | -47.33665 | 8448 ft | 166 kts | 273° |
| 2026-05-08 19:42 | 66.73282 | -47.36523 | 8449 ft | 166 kts | 273° |
| 2026-05-08 19:42 | 66.73504 | -47.39382 | 8449 ft | 166 kts | 273° |
| 2026-05-08 19:43 | 66.73726 | -47.42246 | 8449 ft | 166 kts | 273° |
| 2026-05-08 19:43 | 66.73947 | -47.45121 | 8448 ft | 167 kts | 273° |
| 2026-05-08 19:43 | 66.74168 | -47.48000 | 8442 ft | 167 kts | 273° |
| 2026-05-08 19:43 | 66.74389 | -47.50876 | 8442 ft | 167 kts | 273° |
| 2026-05-08 19:44 | 66.74609 | -47.53753 | 8442 ft | 167 kts | 273° |
| 2026-05-08 19:44 | 66.74829 | -47.56637 | 8441 ft | 167 kts | 273° |
| 2026-05-08 19:44 | 66.75048 | -47.59516 | 8441 ft | 167 kts | 273° |
| 2026-05-08 19:44 | 66.75267 | -47.62397 | 8433 ft | 167 kts | 273° |
| 2026-05-08 19:45 | 66.75486 | -47.65282 | 8434 ft | 167 kts | 273° |
| 2026-05-08 19:45 | 66.75704 | -47.68163 | 8434 ft | 167 kts | 273° |
| 2026-05-08 19:45 | 66.75921 | -47.71041 | 8435 ft | 166 kts | 273° |
| 2026-05-08 19:45 | 66.76137 | -47.73922 | 8435 ft | 167 kts | 273° |
| 2026-05-08 19:46 | 66.76353 | -47.76807 | 8433 ft | 167 kts | 273° |
| 2026-05-08 19:46 | 66.76569 | -47.79685 | 8433 ft | 166 kts | 273° |
| 2026-05-08 19:46 | 66.76998 | -47.85445 | 8434 ft | 167 kts | 273° |
| 2026-05-08 19:47 | 66.77212 | -47.88332 | 8425 ft | 167 kts | 273° |
| 2026-05-08 19:47 | 66.77425 | -47.91210 | 8425 ft | 166 kts | 272° |
| 2026-05-08 19:47 | 66.77638 | -47.94095 | 8427 ft | 167 kts | 273° |
| 2026-05-08 19:47 | 66.77850 | -47.96986 | 8427 ft | 167 kts | 273° |
| 2026-05-08 19:48 | 66.78064 | -47.99886 | 8428 ft | 167 kts | 273° |
| 2026-05-08 19:48 | 66.78276 | -48.02787 | 8428 ft | 167 kts | 273° |
| 2026-05-08 19:48 | 66.78487 | -48.05683 | 8427 ft | 167 kts | 273° |
| 2026-05-08 19:48 | 66.78699 | -48.08592 | 8428 ft | 168 kts | 272° |
| 2026-05-08 19:49 | 66.78911 | -48.11510 | 8429 ft | 168 kts | 272° |
| 2026-05-08 19:49 | 66.79119 | -48.14380 | 8429 ft | 168 kts | 272° |
| 2026-05-08 19:49 | 66.79332 | -48.17331 | 8427 ft | 168 kts | 272° |
| 2026-05-08 19:49 | 66.79542 | -48.20247 | 8431 ft | 168 kts | 272° |
| 2026-05-08 19:50 | 66.79749 | -48.23132 | 8422 ft | 169 kts | 272° |
| 2026-05-08 19:50 | 66.79962 | -48.26100 | 8428 ft | 169 kts | 272° |
| 2026-05-08 19:50 | 66.80169 | -48.28993 | 8420 ft | 169 kts | 272° |
| 2026-05-08 19:50 | 66.80378 | -48.31928 | 8422 ft | 171 kts | 272° |
| 2026-05-08 19:51 | 66.80589 | -48.34911 | 8415 ft | 172 kts | 272° |
| 2026-05-08 19:51 | 66.80801 | -48.37904 | 8414 ft | 172 kts | 272° |
| 2026-05-08 19:51 | 66.81013 | -48.40897 | 8414 ft | 173 kts | 272° |
| 2026-05-08 19:51 | 66.81225 | -48.43897 | 8414 ft | 173 kts | 272° |
| 2026-05-08 19:52 | 66.81435 | -48.46897 | 8417 ft | 173 kts | 272° |
| 2026-05-08 19:52 | 66.81646 | -48.49896 | 8418 ft | 173 kts | 272° |
| 2026-05-08 19:52 | 66.81856 | -48.52908 | 8418 ft | 173 kts | 272° |
| 2026-05-08 19:52 | 66.82065 | -48.55916 | 8418 ft | 173 kts | 272° |
| 2026-05-08 19:53 | 66.82274 | -48.58927 | 8417 ft | 173 kts | 272° |
| 2026-05-08 19:53 | 66.82483 | -48.61938 | 8417 ft | 173 kts | 272° |
| 2026-05-08 19:53 | 66.82690 | -48.64943 | 8417 ft | 173 kts | 272° |
| 2026-05-08 19:53 | 66.82897 | -48.67944 | 8407 ft | 173 kts | 272° |
| 2026-05-08 19:54 | 66.83103 | -48.70945 | 8407 ft | 173 kts | 272° |
| 2026-05-08 19:54 | 66.83309 | -48.73951 | 8407 ft | 173 kts | 272° |
| 2026-05-08 19:54 | 66.83514 | -48.76955 | 8407 ft | 173 kts | 272° |
| 2026-05-08 19:54 | 66.83718 | -48.79961 | 8407 ft | 173 kts | 272° |
| 2026-05-08 19:55 | 66.83922 | -48.82962 | 8409 ft | 172 kts | 272° |
| 2026-05-08 19:55 | 66.84125 | -48.85966 | 8408 ft | 172 kts | 271° |
| 2026-05-08 19:55 | 66.84327 | -48.88961 | 8409 ft | 172 kts | 271° |
| 2026-05-08 19:55 | 66.84528 | -48.91960 | 8410 ft | 172 kts | 271° |
| 2026-05-08 19:56 | 66.84730 | -48.94965 | 8409 ft | 173 kts | 271° |
| 2026-05-08 19:56 | 66.84931 | -48.97984 | 8406 ft | 173 kts | 271° |
| 2026-05-08 19:56 | 66.85133 | -49.01004 | 8398 ft | 173 kts | 271° |
| 2026-05-08 19:56 | 66.85333 | -49.04016 | 8399 ft | 173 kts | 271° |
| 2026-05-08 19:57 | 66.85532 | -49.07024 | 8398 ft | 173 kts | 271° |
| 2026-05-08 19:57 | 66.85731 | -49.10047 | 8376 ft | 174 kts | 272° |
| 2026-05-08 19:57 | 66.85931 | -49.13082 | 8376 ft | 174 kts | 272° |
| 2026-05-08 19:57 | 66.86131 | -49.16123 | 8377 ft | 175 kts | 272° |
| 2026-05-08 19:58 | 66.86330 | -49.19171 | 8376 ft | 175 kts | 272° |
| 2026-05-08 19:58 | 66.86462 | -49.21190 | 8377 ft | 175 kts | 272° |
| 2026-05-08 19:58 | 66.86661 | -49.24240 | 8376 ft | 175 kts | 272° |
| 2026-05-08 19:58 | 66.86859 | -49.27290 | 8377 ft | 175 kts | 272° |
| 2026-05-08 19:59 | 66.87056 | -49.30352 | 8377 ft | 176 kts | 272° |
| 2026-05-08 19:59 | 66.87254 | -49.33415 | 8376 ft | 175 kts | 272° |
| 2026-05-08 19:59 | 66.87451 | -49.36474 | 8378 ft | 175 kts | 272° |
| 2026-05-08 19:59 | 66.87647 | -49.39538 | 8376 ft | 175 kts | 272° |
| 2026-05-08 20:00 | 66.87842 | -49.42599 | 8375 ft | 175 kts | 272° |
| 2026-05-08 20:00 | 66.88037 | -49.45658 | 8375 ft | 175 kts | 272° |
| 2026-05-08 20:00 | 66.88230 | -49.48708 | 8359 ft | 175 kts | 272° |
| 2026-05-08 20:00 | 66.88423 | -49.51762 | 8358 ft | 175 kts | 272° |
| 2026-05-08 20:01 | 66.88615 | -49.54812 | 8358 ft | 175 kts | 272° |
| 2026-05-08 20:01 | 66.88807 | -49.57864 | 8359 ft | 174 kts | 272° |
| 2026-05-08 20:01 | 66.88998 | -49.60915 | 8359 ft | 175 kts | 272° |
| 2026-05-08 20:01 | 66.89189 | -49.63970 | 8360 ft | 175 kts | 272° |
| 2026-05-08 20:02 | 66.89377 | -49.67034 | 8359 ft | 175 kts | 270° |
| 2026-05-08 20:02 | 66.89340 | -49.70050 | 8337 ft | 169 kts | 255° |
| 2026-05-08 20:02 | 66.89184 | -49.73008 | 8336 ft | 168 kts | 254° |
| 2026-05-08 20:02 | 66.89022 | -49.75955 | 8338 ft | 168 kts | 254° |
| 2026-05-08 20:03 | 66.88861 | -49.78900 | 8338 ft | 168 kts | 254° |
| 2026-05-08 20:03 | 66.88700 | -49.81844 | 8338 ft | 168 kts | 254° |
| 2026-05-08 20:03 | 66.88538 | -49.84790 | 8337 ft | 168 kts | 254° |
| 2026-05-08 20:03 | 66.88378 | -49.87701 | 8338 ft | 168 kts | 255° |
| 2026-05-08 20:04 | 66.88216 | -49.90648 | 8337 ft | 168 kts | 255° |
| 2026-05-08 20:04 | 66.88053 | -49.93596 | 8343 ft | 170 kts | 256° |
| 2026-05-08 20:04 | 66.87886 | -49.96592 | 8318 ft | 172 kts | 256° |
| 2026-05-08 20:04 | 66.87720 | -49.99598 | 8314 ft | 172 kts | 255° |
| 2026-05-08 20:05 | 66.87552 | -50.02600 | 8316 ft | 171 kts | 255° |
| 2026-05-08 20:05 | 66.87386 | -50.05584 | 8320 ft | 171 kts | 256° |
| 2026-05-08 20:05 | 66.87217 | -50.08576 | 8318 ft | 171 kts | 256° |
| 2026-05-08 20:05 | 66.87049 | -50.11564 | 8316 ft | 170 kts | 256° |
| 2026-05-08 20:06 | 66.86882 | -50.14528 | 8315 ft | 169 kts | 255° |
| 2026-05-08 20:06 | 66.86716 | -50.17461 | 8302 ft | 168 kts | 256° |
| 2026-05-08 20:06 | 66.86549 | -50.20407 | 8299 ft | 167 kts | 255° |
| 2026-05-08 20:06 | 66.86380 | -50.23325 | 8299 ft | 166 kts | 255° |
| 2026-05-08 20:07 | 66.86213 | -50.26221 | 8305 ft | 166 kts | 255° |
| 2026-05-08 20:07 | 66.86046 | -50.29124 | 8305 ft | 166 kts | 255° |
| 2026-05-08 20:07 | 66.85878 | -50.32025 | 8304 ft | 166 kts | 255° |
| 2026-05-08 20:07 | 66.85711 | -50.34906 | 8298 ft | 164 kts | 255° |
| 2026-05-08 20:08 | 66.85546 | -50.37747 | 8295 ft | 161 kts | 255° |
| 2026-05-08 20:08 | 66.85382 | -50.40566 | 8308 ft | 162 kts | 255° |
| 2026-05-08 20:08 | 66.85217 | -50.43408 | 8308 ft | 163 kts | 255° |
| 2026-05-08 20:08 | 66.85049 | -50.46264 | 8307 ft | 164 kts | 255° |
| 2026-05-08 20:09 | 66.84880 | -50.49127 | 8308 ft | 164 kts | 255° |
| 2026-05-08 20:09 | 66.84711 | -50.51996 | 8303 ft | 165 kts | 255° |
| 2026-05-08 20:09 | 66.84541 | -50.54868 | 8301 ft | 164 kts | 255° |
| 2026-05-08 20:09 | 66.84372 | -50.57717 | 8300 ft | 162 kts | 255° |
| 2026-05-08 20:10 | 66.84204 | -50.60538 | 8287 ft | 160 kts | 255° |
| 2026-05-08 20:10 | 66.84041 | -50.63276 | 8281 ft | 158 kts | 255° |
| 2026-05-08 20:10 | 66.83871 | -50.66078 | 8281 ft | 159 kts | 255° |
| 2026-05-08 20:10 | 66.83705 | -50.68813 | 8247 ft | 161 kts | 255° |
| 2026-05-08 20:11 | 66.83526 | -50.71737 | 8027 ft | 173 kts | 255° |
| 2026-05-08 20:11 | 66.83339 | -50.74822 | 7787 ft | 180 kts | 255° |
| 2026-05-08 20:11 | 66.83149 | -50.78000 | 7540 ft | 184 kts | 255° |
| 2026-05-08 20:11 | 66.82951 | -50.81251 | 7289 ft | 187 kts | 255° |
| 2026-05-08 20:12 | 66.82751 | -50.84517 | 7041 ft | 186 kts | 256° |
| 2026-05-08 20:12 | 66.82560 | -50.87673 | 6814 ft | 176 kts | 255° |
| 2026-05-08 20:12 | 66.82375 | -50.90695 | 6584 ft | 171 kts | 255° |
| 2026-05-08 20:12 | 66.82194 | -50.93612 | 6370 ft | 165 kts | 254° |
| 2026-05-08 20:13 | 66.82013 | -50.96494 | 6143 ft | 166 kts | 254° |
| 2026-05-08 20:13 | 66.81831 | -50.99383 | 5922 ft | 166 kts | 255° |
| 2026-05-08 20:13 | 66.81651 | -51.02272 | 5702 ft | 166 kts | 255° |
| 2026-05-08 20:13 | 66.81471 | -51.05145 | 5480 ft | 164 kts | 254° |
| 2026-05-08 20:14 | 66.81315 | -51.07987 | 5268 ft | 164 kts | 261° |
| 2026-05-08 20:14 | 66.81474 | -51.10888 | 5053 ft | 169 kts | 282° |
| 2026-05-08 20:14 | 66.82041 | -51.13460 | 4876 ft | 166 kts | 304° |
| 2026-05-08 20:14 | 66.82921 | -51.15324 | 4731 ft | 165 kts | 326° |
| 2026-05-08 20:15 | 66.83922 | -51.16740 | 4580 ft | 165 kts | 327° |
| 2026-05-08 20:15 | 66.84924 | -51.18135 | 4428 ft | 164 kts | 327° |
| 2026-05-08 20:15 | 66.85924 | -51.19530 | 4286 ft | 165 kts | 327° |
| 2026-05-08 20:15 | 66.86933 | -51.20940 | 4131 ft | 166 kts | 327° |
| 2026-05-08 20:16 | 66.87981 | -51.22210 | 3971 ft | 169 kts | 342° |
| 2026-05-08 20:16 | 66.89140 | -51.22378 | 3819 ft | 167 kts | 11° |
| 2026-05-08 20:16 | 66.90199 | -51.21277 | 3670 ft | 163 kts | 39° |
| 2026-05-08 20:16 | 66.90952 | -51.19215 | 3524 ft | 157 kts | 64° |
| 2026-05-08 20:17 | 66.91481 | -51.16815 | 3386 ft | 154 kts | 67° |
| 2026-05-08 20:17 | 66.91997 | -51.14418 | 3244 ft | 153 kts | 67° |
| 2026-05-08 20:17 | 66.92506 | -51.12043 | 3107 ft | 151 kts | 65° |
| 2026-05-08 20:17 | 66.93008 | -51.09717 | 2972 ft | 149 kts | 68° |
| 2026-05-08 20:18 | 66.93499 | -51.07430 | 2832 ft | 146 kts | 68° |
| 2026-05-08 20:18 | 66.93983 | -51.05172 | 2704 ft | 144 kts | 67° |
| 2026-05-08 20:18 | 66.94455 | -51.02965 | 2572 ft | 139 kts | 66° |
| 2026-05-08 20:18 | 66.94894 | -51.00932 | 2464 ft | 127 kts | 67° |
| 2026-05-08 20:19 | 66.95312 | -50.98983 | 2377 ft | 123 kts | 69° |
| 2026-05-08 20:19 | 66.95709 | -50.97127 | 2365 ft | 117 kts | 65° |
| 2026-05-08 20:19 | 66.96105 | -50.95267 | 2227 ft | 122 kts | 68° |
| 2026-05-08 20:19 | 66.96503 | -50.93396 | 2018 ft | 116 kts | 67° |
| 2026-05-08 20:20 | 66.96876 | -50.91655 | 1860 ft | 101 kts | 67° |
| 2026-05-08 20:20 | 66.97188 | -50.90195 | 1691 ft | 92 kts | 66° |
| 2026-05-08 20:20 | 66.97488 | -50.88787 | 1548 ft | 89 kts | 64° |
| 2026-05-08 20:20 | 66.97774 | -50.87436 | 1407 ft | 85 kts | 63° |
| 2026-05-08 20:21 | 66.98061 | -50.86134 | 1273 ft | 85 kts | 63° |
| 2026-05-08 20:21 | 66.98337 | -50.84773 | 1095 ft | 85 kts | 63° |
| 2026-05-08 20:21 | 66.98615 | -50.83475 | 992 ft | 81 kts | 63° |
| 2026-05-08 20:21 | 66.98887 | -50.82216 | 851 ft | 83 kts | 66° |
| 2026-05-08 20:22 | 66.99159 | -50.80945 | 716 ft | 82 kts | 61° |
| 2026-05-08 20:22 | 66.99445 | -50.79650 | 581 ft | 82 kts | 62° |
| 2026-05-08 20:22 | 66.99704 | -50.78425 | 513 ft | 77 kts | 63° |
| 2026-05-08 20:22 | 66.99965 | -50.77174 | 412 ft | 77 kts | 62° |
| 2026-05-08 20:23 | 67.00214 | -50.75994 | 328 ft | 73 kts | 65° |
| 2026-05-08 20:23 | 67.00452 | -50.74824 | 225 ft | 72 kts | 64° |
| 2026-05-08 20:23 | 67.00689 | -50.73694 | 151 ft | 70 kts | 60° |
| 2026-05-08 20:23 | 67.00860 | -50.72868 | 156 ft | 37 kts | 62° |
| 2026-05-08 20:24 | 67.00959 | -50.72396 | 160 ft | 24 kts | 63° |
| 2026-05-08 20:24 | 67.00962 | -50.72156 | 163 ft | 12 kts | 144° |
| 2026-05-08 20:24 | 67.00874 | -50.72035 | 163 ft | 16 kts | 155° |
| 2026-05-08 20:24 | 67.00791 | -50.71852 | 163 ft | 13 kts | 79° |
| 2026-05-08 20:25 | 67.00821 | -50.71695 | 165 ft | 9 kts | 62° |
| 2026-05-08 20:25 | 67.00861 | -50.71508 | 167 ft | 17 kts | 62° |
| 2026-05-08 20:25 | 67.00932 | -50.71178 | 171 ft | 21 kts | 61° |
| 2026-05-08 20:25 | 67.00978 | -50.70938 | 174 ft | 11 kts | 88° |
| 2026-05-08 20:26 | 67.00941 | -50.70787 | 175 ft | 10 kts | 116° |
| 2026-05-08 20:26 | 67.00918 | -50.70647 | 176 ft | 7 kts | 91° |
| 2026-05-08 20:26 | 67.00925 | -50.70621 | 176 ft | 0 kts | 251° |